Flight Track Log - Related Links

Times and Time Zones

All times are in EDT time to prevent confusion due to time zone crossing. See the N138CH flight status page for this flight to view local times or setup timezone preferences in your user account.

Time Position Orientation Groundspeed Altitude Reporting Facility
EDT Latitude Longitude Course Direction KTS MPH feet Rate Location/Type
Sat 07:05:42 PM 25.9203 -80.3264 293° West 202 232 1,900  Level Miami Center
Sat 07:06:25 PM 25.9397 -80.3778 293° West 281 323 2,600 2,827 Climbing Miami Center
Sat 07:07:26 PM 26.0000 -80.3911 349° North 266 306 6,800 4,086 Climbing Miami Center
Sat 07:08:21 PM 26.0103 -80.3153 81° East 296 341 10,500 3,614 Climbing Miami Center
Sat 07:08:54 PM 26.0133 -80.2714 86° East 303 349 12,100 3,134 Climbing Miami Center
Sat 07:09:28 PM 26.0064 -80.2111 97° East 321 369 14,000 1,950 Climbing Miami Center
Sat 07:10:54 PM 26.0039 -80.0492 91° East 371 427 16,000 781 Climbing Miami Center
Sat 07:11:54 PM 25.9981 -79.9219 93° East 385 443 15,900 1,050 Descending Miami Center
Sat 07:12:54 PM 25.9944 -79.7969 92° East 397 457 18,100 2,650 Climbing Miami Center
Sat 07:13:54 PM 25.9883 -79.6744 93° East 397 457 21,200 2,700 Climbing Miami Center
Sat 07:14:54 PM 25.9825 -79.5517 93° East 402 463 23,500 2,250 Climbing Miami Center
Sat 07:15:54 PM 25.9761 -79.4406 94° East 407 468 25,700 2,000 Climbing Miami Center
Sat 07:16:54 PM 25.9617 -79.2994 96° East 407 468 27,500 1,600 Climbing Miami Center
Sat 07:17:54 PM 25.9450 -79.1650 98° East 420 483 28,900 1,550 Climbing Miami Center
Sat 07:18:54 PM 25.8969 -79.0394 113° Southeast 431 496 30,600 1,900 Climbing Miami Center
Sat 07:19:54 PM 25.8422 -78.9206 117° Southeast 431 496 32,700 1,850 Climbing Miami Center
Sat 07:20:54 PM 25.7706 -78.8111 126° Southeast 431 496 34,300 1,600 Climbing Miami Center
Sat 07:21:54 PM 25.7283 -78.6833 110° East 431 496 35,900 1,400 Climbing Miami Center
Sat 07:22:54 PM 25.7050 -78.5447 101° East 442 509 37,100 1,200 Climbing Miami Center
Sat 07:23:54 PM 25.6856 -78.4036 99° East 452 520 38,300 1,350 Climbing Miami Center
Sat 07:24:54 PM 25.6303 -78.2764 116° Southeast 452 520 39,800 1,350 Climbing Miami Center
Sat 07:25:54 PM 25.5625 -78.1603 123° Southeast 447 514 41,000 600 Climbing Miami Center
Sat 07:26:54 PM 25.4967 -78.0400 121° Southeast 452 520 41,000  Level Miami Center
Sat 07:27:54 PM 25.4286 -77.9172 122° Southeast 458 527 41,000  Level Miami Center
Sat 07:28:54 PM 25.3625 -77.7925 120° Southeast 463 533 41,000  Level Miami Center
Sat 07:29:54 PM 25.2922 -77.6769 124° Southeast 463 533 41,000  Level Miami Center
Sat 07:30:54 PM 25.2092 -77.5708 131° Southeast 463 533 41,000  Level Miami Center
Sat 07:31:54 PM 25.1178 -77.4739 136° Southeast 470 541 41,000  Level Miami Center
Sat 07:32:54 PM 25.0344 -77.3658 130° Southeast 470 541 41,000  Level Miami Center
Sat 07:33:54 PM 24.9514 -77.2211 122° Southeast 494 568 41,000  Level Miami Center
Sat 07:34:54 PM 24.8867 -77.1017 121° Southeast 478 550 41,000  Level Miami Center
Sat 07:35:54 PM 24.8200 -76.9803 121° Southeast 472 543 41,000  Level Miami Center
Sat 07:36:54 PM 24.7531 -76.8564 121° Southeast 472 543 41,000  Level Miami Center
Sat 07:37:54 PM 24.6861 -76.7331 121° Southeast 472 543 41,000  Level Miami Center
Sat 07:38:54 PM 24.6192 -76.6119 121° Southeast 472 543 41,000  Level Miami Center
Sat 07:39:54 PM 24.5500 -76.4886 122° Southeast 467 537 41,000  Level Miami Center
Sat 07:40:54 PM 24.4847 -76.3678 121° Southeast 467 537 41,000  Level Miami Center
Sat 07:41:54 PM 24.4194 -76.2472 121° Southeast 467 537 41,000  Level Miami Center
Sat 07:42:54 PM 24.3522 -76.1219 120° Southeast 467 537 41,000  Level Miami Center
Sat 07:43:54 PM 24.2844 -75.9994 121° Southeast 467 537 41,000  Level Miami Center
Sat 07:44:54 PM 24.2147 -75.8767 122° Southeast 467 537 41,000  Level Miami Center
Sat 07:45:54 PM 24.1469 -75.7497 120° Southeast 467 537 41,000  Level Miami Center
Sat 07:46:54 PM 24.0792 -75.6275 121° Southeast 467 537 41,000  Level Miami Center
Sat 07:47:54 PM 24.0069 -75.5008 122° Southeast 473 544 41,000  Level Miami Center
Sat 07:48:54 PM 23.9369 -75.3767 122° Southeast 473 544 41,000  Level Miami Center
Sat 07:49:54 PM 23.8686 -75.2500 121° Southeast 478 550 41,000  Level Miami Center
Sat 07:50:54 PM 23.7964 -75.1261 122° Southeast 478 550 41,000  Level Miami Center
Sat 07:51:54 PM 23.7258 -75.0000 121° Southeast 478 550 41,000  Level Miami Center
Sat 07:52:54 PM 23.6531 -74.8764 123° Southeast 478 550 41,000  Level Miami Center
Sat 07:53:54 PM 23.5911 -74.7639 121° Southeast 483 556 41,000  Level Miami Center
Sat 07:54:54 PM 23.5181 -74.6383 122° Southeast 483 556 41,000  Level Miami Center
Sat 07:55:54 PM 23.4453 -74.5150 123° Southeast 483 556 41,000  Level Miami Center
Sat 07:56:54 PM 23.3742 -74.3894 122° Southeast 483 556 41,000  Level Miami Center
Sat 07:57:54 PM 23.3033 -74.2644 122° Southeast 483 556 41,000  Level Miami Center
Sat 07:58:54 PM 23.2278 -74.1369 123° Southeast 489 563 41,000  Level Miami Center
Sat 07:59:54 PM 23.1567 -74.0142 122° Southeast 489 563 41,000  Level Miami Center
Sat 08:00:54 PM 23.0872 -73.8869 121° Southeast 489 563 41,000  Level Miami Center
Sat 08:01:54 PM 23.0097 -73.7625 124° Southeast 494 568 41,000  Level Miami Center
Sat 08:02:54 PM 22.9381 -73.6358 122° Southeast 494 568 41,000  Level Miami Center
Sat 08:03:54 PM 22.8642 -73.5092 122° Southeast 494 568 41,000  Level Miami Center
Sat 08:04:54 PM 22.7947 -73.3869 122° Southeast 489 563 41,000  Level Miami Center
Sat 08:05:54 PM 22.7186 -73.2608 123° Southeast 489 563 41,000  Level Miami Center
Sat 08:06:54 PM 22.6489 -73.1411 122° Southeast 489 563 41,000  Level Miami Center
Sat 08:07:54 PM 22.5747 -73.0175 123° Southeast 484 557 41,000  Level Miami Center
Sat 08:08:54 PM 22.5047 -72.8936 121° Southeast 489 563 41,000  Level Miami Center
Sat 08:09:54 PM 22.4306 -72.7678 123° Southeast 494 568 41,000  Level Miami Center
Sat 08:10:54 PM 22.3539 -72.6422 123° Southeast 494 568 41,000  Level Miami Center
Sat 08:11:54 PM 22.2836 -72.5167 121° Southeast 489 563 41,000  Level Miami Center
Sat 08:12:54 PM 22.2092 -72.3958 124° Southeast 489 563 41,000  Level Miami Center
Sat 08:13:54 PM 22.1319 -72.2619 122° Southeast 489 563 41,000  Level Miami Center
Sat 08:14:54 PM 22.0572 -72.1369 123° Southeast 489 563 41,000  Level Miami Center
Sat 08:15:54 PM 21.9825 -72.0164 124° Southeast 489 563 41,000  Level Miami Center
Sat 08:16:54 PM 21.9097 -71.8939 123° Southeast 489 563 41,000  Level Miami Center
Sat 08:17:54 PM 21.8367 -71.7714 123° Southeast 489 563 41,000  Level Miami Center
Sat 08:18:54 PM 21.7639 -71.6514 123° Southeast 489 563 41,000  Level Miami Center
Sat 08:19:54 PM 21.6931 -71.5314 122° Southeast 484 557 41,000  Level Miami Center
Sat 08:20:54 PM 21.6197 -71.4094 123° Southeast 484 557 41,000  Level Miami Center
Sat 08:21:54 PM 21.5489 -71.2919 123° Southeast 484 557 41,000  Level Miami Center
Sat 08:22:54 PM 21.4822 -71.1833 123° Southeast 478 550 41,000  Level Miami Center
Sat 08:23:54 PM 21.4089 -71.0639 123° Southeast 478 550 41,000  Level Miami Center
Sat 08:24:54 PM 21.3267 -70.9250 122° Southeast 474 545 41,000  Level Miami Center
Sat 08:25:54 PM 21.2553 -70.8103 124° Southeast 482 555 41,000  Level Miami Center
Sat 08:26:54 PM 21.1819 -70.6911 123° Southeast 477 549 41,000  Level Miami Center
Sat 08:27:54 PM 21.1103 -70.5722 123° Southeast 477 549 41,000  Level Miami Center
Sat 08:28:54 PM 21.0367 -70.4536 124° Southeast 477 549 41,000  Level Miami Center
Sat 08:29:54 PM 20.9628 -70.3328 123° Southeast 477 549 41,000  Level Miami Center
Sat 08:30:54 PM 20.8889 -70.2122 123° Southeast 483 556 41,000  Level Miami Center
Sat 08:31:54 PM 20.8169 -70.0939 123° Southeast 483 556 41,000  Level Miami Center
Sat 08:32:54 PM 20.7408 -69.9758 125° Southeast 483 556 41,000  Level Miami Center
Sat 08:33:54 PM 20.6689 -69.8553 123° Southeast 483 556 41,000  Level Miami Center
Sat 08:34:54 PM 20.5925 -69.7353 124° Southeast 483 556 41,000  Level Miami Center
Sat 08:35:54 PM 20.5206 -69.6175 123° Southeast 478 550 41,000  Level Miami Center
Sat 08:36:54 PM 20.4461 -69.4978 124° Southeast 478 550 41,000  Level Miami Center
Sat 08:37:54 PM 20.3717 -69.3803 124° Southeast 483 556 41,000  Level Miami Center
Sat 08:38:54 PM 20.2972 -69.2586 123° Southeast 483 556 41,000  Level Miami Center
Sat 08:39:54 PM 20.2228 -69.1436 125° Southeast 483 556 41,000  Level Miami Center
Sat 08:40:54 PM 20.1503 -69.0242 123° Southeast 483 556 41,000  Level Miami Center
Sat 08:41:54 PM 20.0647 -68.8967 126° Southeast 483 556 41,000  Level Miami Center
Sat 08:42:54 PM 20.0011 -68.7925 123° Southeast 477 549 41,000  Level Miami Center
Sat 08:43:54 PM 19.9283 -68.6758 124° Southeast 472 543 41,000  Level Miami Center
Sat 08:44:54 PM 19.8581 -68.5611 123° Southeast 472 543 41,000  Level Miami Center
Sat 08:45:54 PM 19.7894 -68.4486 123° Southeast 467 537 41,000  Level Miami Center
Sat 08:46:54 PM 19.7150 -68.3411 126° Southeast 467 537 41,000  Level Miami Center
Sat 08:47:59 PM 19.6333 -68.2167 125° Southeast 460 529 41,000  Level San Juan Center
Sat 08:48:59 PM 19.5667 -68.1167 125° Southeast 470 541 41,000 -850 Level San Juan Center
Sat 08:49:59 PM 19.5000 -68.0000 121° Southeast 460 529 39,300 -1,950 Descending San Juan Center
Sat 08:50:59 PM 19.4167 -67.8667 124° Southeast 440 506 37,100 -2,331 Descending San Juan Center
Sat 08:52:00 PM 19.3333 -67.7667 131° Southeast 450 518 34,600 -2,479 Descending San Juan Center
Sat 08:53:00 PM 19.2667 -67.6500 121° Southeast 460 529 32,100 -2,400 Descending San Juan Center
Sat 08:54:00 PM 19.2167 -67.5500 118° Southeast 480 552 29,800 -2,479 Descending San Juan Center
Sat 08:55:01 PM 19.1500 -67.4000 115° Southeast 460 529 27,100 -2,529 Descending San Juan Center
Sat 08:56:01 PM 19.0833 -67.2833 121° Southeast 440 506 24,700 -2,350 Descending San Juan Center
Sat 08:57:01 PM 19.0333 -67.1667 114° Southeast 430 495 22,400 -2,254 Descending San Juan Center
Sat 08:59:02 PM 18.9167 -66.9500 120° Southeast 420 483 17,900 -2,155 Descending San Juan Center
Sat 09:00:02 PM 18.8667 -66.8500 118° Southeast 380 437 15,900 -1,983 Descending San Juan Center
Sat 09:01:03 PM 18.8167 -66.7500 118° Southeast 350 403 13,900 -1,835 Descending San Juan Center
Sat 09:02:03 PM 18.7833 -66.6667 113° Southeast 330 380 12,200 -1,750 Descending San Juan Center
Sat 09:03:03 PM 18.7333 -66.5833 122° Southeast 330 380 10,400 -1,650 Descending San Juan Center
Sat 09:04:03 PM 18.6833 -66.5167 128° Southeast 300 345 8,900 -1,438 Descending San Juan Center
Sat 09:05:04 PM 18.6333 -66.4500 128° Southeast 270 311 7,500 -1,388 Descending San Juan Center
Sat 09:06:04 PM 18.5833 -66.3833 128° Southeast 270 311 6,100 -1,350 Descending San Juan Center
Sat 09:07:04 PM 18.5500 -66.3333 125° Southeast 250 288 4,800 -1,289 Descending San Juan Center
Sat 09:08:05 PM 18.5000 -66.2833 137° Southeast 240 276 3,500 -1,279 Descending San Juan Center
Sat 09:10:00 PM 18.4568 -66.0981 109° East  Level Estimated
Sat 09:17:00 PM 18.4568 -66.0981 109° East  Level Estimated
Sat 09:18:00 PM 18.4568 -66.0981 109° East  Level Estimated
Sat 09:19:00 PM 18.4568 -66.0981 109° East  Level Estimated
Sat 09:20:00 PM 18.4568 -66.0981 109° East  Level Estimated
Sat 09:21:00 PM 18.4568 -66.0981 109° East  Level Estimated
Sat 09:22:00 PM 18.4568 -66.0981 109° East  Level Estimated
Sat 09:23:00 PM 18.4568 -66.0981 109° East  Level Estimated
Sat 09:24:00 PM 18.4568 -66.0981 109° East  Level Estimated
Sat 09:25:00 PM 18.4568 -66.0981 109° East  Level Estimated
Sat 09:26:00 PM 18.4568 -66.0981 109° East  Level Estimated
Sat 09:27:00 PM 18.4568 -66.0981 109° East  Level Estimated
Sat 09:28:00 PM 18.4568 -66.0981 109° East  Level Estimated
Sat 09:29:00 PM 18.4568 -66.0981 109° East  Level Estimated

Login

Don't have an account? Register now (free) for customized features, flight alerts, and more!